sensor_id;sensor_type;location;lat;lon;timestamp;temperature;humidity
16136;DHT22;8173;48.354;9.248;2022-09-09T00:02:08;9.10;99.90
16136;DHT22;8173;48.354;9.248;2022-09-09T00:04:39;9.10;99.90
16136;DHT22;8173;48.354;9.248;2022-09-09T00:07:13;9.00;99.90
16136;DHT22;8173;48.354;9.248;2022-09-09T00:09:46;9.00;99.90
16136;DHT22;8173;48.354;9.248;2022-09-09T00:12:16;9.00;99.90
16136;DHT22;8173;48.354;9.248;2022-09-09T00:14:49;9.00;99.90
16136;DHT22;8173;48.354;9.248;2022-09-09T00:17:26;8.90;99.90
16136;DHT22;8173;48.354;9.248;2022-09-09T00:20:03;8.90;99.90
16136;DHT22;8173;48.354;9.248;2022-09-09T00:22:32;8.90;99.90
16136;DHT22;8173;48.354;9.248;2022-09-09T00:25:05;8.70;99.90
16136;DHT22;8173;48.354;9.248;2022-09-09T00:27:40;8.60;99.90
16136;DHT22;8173;48.354;9.248;2022-09-09T00:30:15;8.60;99.90
16136;DHT22;8173;48.354;9.248;2022-09-09T00:32:45;8.60;99.90
16136;DHT22;8173;48.354;9.248;2022-09-09T00:35:18;8.60;99.90
16136;DHT22;8173;48.354;9.248;2022-09-09T00:37:48;8.70;99.90
16136;DHT22;8173;48.354;9.248;2022-09-09T00:40:24;8.70;99.90
16136;DHT22;8173;48.354;9.248;2022-09-09T00:42:59;8.70;99.90
16136;DHT22;8173;48.354;9.248;2022-09-09T00:48:40;8.60;99.90
16136;DHT22;8173;48.354;9.248;2022-09-09T00:51:15;8.70;99.90
16136;DHT22;8173;48.354;9.248;2022-09-09T00:54:04;8.60;99.90
16136;DHT22;8173;48.354;9.248;2022-09-09T00:56:37;8.70;99.90
16136;DHT22;8173;48.354;9.248;2022-09-09T00:59:15;8.70;99.90
16136;DHT22;8173;48.354;9.248;2022-09-09T01:01:45;8.70;99.90
16136;DHT22;8173;48.354;9.248;2022-09-09T01:04:15;8.60;99.90
16136;DHT22;8173;48.354;9.248;2022-09-09T01:06:46;8.50;99.90
16136;DHT22;8173;48.354;9.248;2022-09-09T01:09:21;9.20;99.90
16136;DHT22;8173;48.354;9.248;2022-09-09T01:11:57;8.50;99.90
16136;DHT22;8173;48.354;9.248;2022-09-09T01:14:38;8.70;99.90
16136;DHT22;8173;48.354;9.248;2022-09-09T01:17:12;8.80;99.90
16136;DHT22;8173;48.354;9.248;2022-09-09T01:19:49;8.90;99.90
16136;DHT22;8173;48.354;9.248;2022-09-09T01:22:25;8.90;99.90
16136;DHT22;8173;48.354;9.248;2022-09-09T01:25:18;9.00;99.90
16136;DHT22;8173;48.354;9.248;2022-09-09T01:27:48;8.90;99.90
16136;DHT22;8173;48.354;9.248;2022-09-09T01:30:17;9.00;99.90
16136;DHT22;8173;48.354;9.248;2022-09-09T01:32:47;8.90;99.90
16136;DHT22;8173;48.354;9.248;2022-09-09T01:35:21;8.70;99.90
16136;DHT22;8173;48.354;9.248;2022-09-09T01:37:53;8.60;99.90
16136;DHT22;8173;48.354;9.248;2022-09-09T01:40:20;8.50;99.90
16136;DHT22;8173;48.354;9.248;2022-09-09T01:42:48;8.50;99.90
16136;DHT22;8173;48.354;9.248;2022-09-09T01:45:15;8.50;99.90
16136;DHT22;8173;48.354;9.248;2022-09-09T01:47:42;8.40;99.90
16136;DHT22;8173;48.354;9.248;2022-09-09T01:50:10;8.40;99.90
16136;DHT22;8173;48.354;9.248;2022-09-09T01:52:39;8.50;99.90
16136;DHT22;8173;48.354;9.248;2022-09-09T01:55:07;8.50;99.90
16136;DHT22;8173;48.354;9.248;2022-09-09T01:57:41;8.60;99.90
16136;DHT22;8173;48.354;9.248;2022-09-09T02:00:13;8.70;99.90
16136;DHT22;8173;48.354;9.248;2022-09-09T02:02:46;8.80;99.90
16136;DHT22;8173;48.354;9.248;2022-09-09T02:05:22;8.90;99.90
16136;DHT22;8173;48.354;9.248;2022-09-09T02:07:53;8.90;99.90
16136;DHT22;8173;48.354;9.248;2022-09-09T02:10:28;9.00;99.90
16136;DHT22;8173;48.354;9.248;2022-09-09T02:13:03;9.00;99.90
16136;DHT22;8173;48.354;9.248;2022-09-09T02:15:34;8.90;99.90
16136;DHT22;8173;48.354;9.248;2022-09-09T02:18:05;8.70;99.90
16136;DHT22;8173;48.354;9.248;2022-09-09T02:20:34;8.70;99.90
16136;DHT22;8173;48.354;9.248;2022-09-09T02:23:04;8.70;99.90
16136;DHT22;8173;48.354;9.248;2022-09-09T02:25:33;8.50;99.90
16136;DHT22;8173;48.354;9.248;2022-09-09T02:28:03;8.50;99.90
16136;DHT22;8173;48.354;9.248;2022-09-09T02:30:33;8.60;99.90
16136;DHT22;8173;48.354;9.248;2022-09-09T02:33:02;8.60;99.90
16136;DHT22;8173;48.354;9.248;2022-09-09T02:35:31;8.70;99.90
16136;DHT22;8173;48.354;9.248;2022-09-09T02:38:01;8.90;99.90
16136;DHT22;8173;48.354;9.248;2022-09-09T02:40:29;9.10;99.90
16136;DHT22;8173;48.354;9.248;2022-09-09T02:42:56;9.20;99.90
16136;DHT22;8173;48.354;9.248;2022-09-09T02:45:25;9.40;99.90
16136;DHT22;8173;48.354;9.248;2022-09-09T02:48:02;9.60;99.90
16136;DHT22;8173;48.354;9.248;2022-09-09T02:50:33;9.70;99.90
16136;DHT22;8173;48.354;9.248;2022-09-09T02:53:07;9.70;99.90
16136;DHT22;8173;48.354;9.248;2022-09-09T02:55:39;9.70;99.90
16136;DHT22;8173;48.354;9.248;2022-09-09T02:58:10;9.80;99.90
16136;DHT22;8173;48.354;9.248;2022-09-09T03:00:38;9.90;99.90
16136;DHT22;8173;48.354;9.248;2022-09-09T03:03:07;10.00;99.90
16136;DHT22;8173;48.354;9.248;2022-09-09T03:05:35;10.60;99.90
16136;DHT22;8173;48.354;9.248;2022-09-09T03:08:02;9.90;99.90
16136;DHT22;8173;48.354;9.248;2022-09-09T03:10:29;10.10;99.90
16136;DHT22;8173;48.354;9.248;2022-09-09T03:12:56;10.00;99.90
16136;DHT22;8173;48.354;9.248;2022-09-09T03:15:23;10.00;99.90
16136;DHT22;8173;48.354;9.248;2022-09-09T03:17:49;10.00;99.90
16136;DHT22;8173;48.354;9.248;2022-09-09T03:20:18;10.00;99.90
16136;DHT22;8173;48.354;9.248;2022-09-09T03:22:44;10.00;99.90
16136;DHT22;8173;48.354;9.248;2022-09-09T03:25:11;9.90;99.90
16136;DHT22;8173;48.354;9.248;2022-09-09T03:27:38;9.70;99.90
16136;DHT22;8173;48.354;9.248;2022-09-09T03:30:07;9.70;99.90
16136;DHT22;8173;48.354;9.248;2022-09-09T03:32:34;9.60;99.90
16136;DHT22;8173;48.354;9.248;2022-09-09T03:35:01;9.60;99.90
16136;DHT22;8173;48.354;9.248;2022-09-09T03:37:29;9.70;99.90
16136;DHT22;8173;48.354;9.248;2022-09-09T03:39:57;9.80;99.90
16136;DHT22;8173;48.354;9.248;2022-09-09T03:42:25;9.80;99.90
16136;DHT22;8173;48.354;9.248;2022-09-09T03:44:52;10.00;99.90
16136;DHT22;8173;48.354;9.248;2022-09-09T03:47:20;10.10;99.90
16136;DHT22;8173;48.354;9.248;2022-09-09T03:49:48;10.00;99.90
16136;DHT22;8173;48.354;9.248;2022-09-09T03:54:43;9.90;99.90
16136;DHT22;8173;48.354;9.248;2022-09-09T03:57:10;10.00;99.90
16136;DHT22;8173;48.354;9.248;2022-09-09T03:59:37;8.80;99.90
16136;DHT22;8173;48.354;9.248;2022-09-09T04:02:04;10.00;99.90
16136;DHT22;8173;48.354;9.248;2022-09-09T04:04:31;10.40;99.90
16136;DHT22;8173;48.354;9.248;2022-09-09T04:06:57;10.10;99.90
16136;DHT22;8173;48.354;9.248;2022-09-09T04:09:24;10.00;99.90
16136;DHT22;8173;48.354;9.248;2022-09-09T04:11:52;10.00;99.90
16136;DHT22;8173;48.354;9.248;2022-09-09T04:14:20;9.90;99.90
16136;DHT22;8173;48.354;9.248;2022-09-09T04:16:47;9.90;99.90
16136;DHT22;8173;48.354;9.248;2022-09-09T04:19:14;9.80;99.90
16136;DHT22;8173;48.354;9.248;2022-09-09T04:21:41;9.80;99.90
16136;DHT22;8173;48.354;9.248;2022-09-09T04:24:08;9.70;99.90
16136;DHT22;8173;48.354;9.248;2022-09-09T04:26:36;9.60;99.90
16136;DHT22;8173;48.354;9.248;2022-09-09T04:29:04;9.50;99.90
16136;DHT22;8173;48.354;9.248;2022-09-09T04:31:33;9.60;99.90
16136;DHT22;8173;48.354;9.248;2022-09-09T04:33:59;10.00;99.90
16136;DHT22;8173;48.354;9.248;2022-09-09T04:36:30;9.70;99.90
16136;DHT22;8173;48.354;9.248;2022-09-09T04:41:25;9.80;99.90
16136;DHT22;8173;48.354;9.248;2022-09-09T04:43:52;9.90;99.90
16136;DHT22;8173;48.354;9.248;2022-09-09T04:46:20;10.00;99.90
16136;DHT22;8173;48.354;9.248;2022-09-09T04:48:48;9.90;99.90
16136;DHT22;8173;48.354;9.248;2022-09-09T04:51:16;9.90;99.90
16136;DHT22;8173;48.354;9.248;2022-09-09T04:53:42;9.90;99.90
16136;DHT22;8173;48.354;9.248;2022-09-09T04:56:11;10.00;99.90
16136;DHT22;8173;48.354;9.248;2022-09-09T04:58:39;10.00;99.90
16136;DHT22;8173;48.354;9.248;2022-09-09T05:01:09;10.00;99.90
16136;DHT22;8173;48.354;9.248;2022-09-09T05:03:38;10.00;99.90
16136;DHT22;8173;48.354;9.248;2022-09-09T05:06:06;10.10;99.90
16136;DHT22;8173;48.354;9.248;2022-09-09T05:08:35;10.10;99.90
16136;DHT22;8173;48.354;9.248;2022-09-09T05:11:02;10.20;99.90
16136;DHT22;8173;48.354;9.248;2022-09-09T05:13:29;10.30;99.90
16136;DHT22;8173;48.354;9.248;2022-09-09T05:15:57;10.30;99.90
16136;DHT22;8173;48.354;9.248;2022-09-09T05:18:24;10.50;99.90
16136;DHT22;8173;48.354;9.248;2022-09-09T05:20:52;10.40;99.90
16136;DHT22;8173;48.354;9.248;2022-09-09T05:23:24;10.60;99.90
16136;DHT22;8173;48.354;9.248;2022-09-09T05:25:55;10.50;99.90
16136;DHT22;8173;48.354;9.248;2022-09-09T05:28:22;10.50;99.90
16136;DHT22;8173;48.354;9.248;2022-09-09T05:33:23;10.60;99.90
16136;DHT22;8173;48.354;9.248;2022-09-09T05:35:57;10.70;99.90
16136;DHT22;8173;48.354;9.248;2022-09-09T05:38:23;10.80;99.90
16136;DHT22;8173;48.354;9.248;2022-09-09T05:40:51;10.90;99.90
16136;DHT22;8173;48.354;9.248;2022-09-09T05:43:18;10.90;99.90
16136;DHT22;8173;48.354;9.248;2022-09-09T05:45:45;10.90;99.90
16136;DHT22;8173;48.354;9.248;2022-09-09T05:48:13;11.10;99.90
16136;DHT22;8173;48.354;9.248;2022-09-09T05:50:40;11.20;99.90
16136;DHT22;8173;48.354;9.248;2022-09-09T05:53:09;11.30;99.90
16136;DHT22;8173;48.354;9.248;2022-09-09T05:55:36;11.40;99.90
16136;DHT22;8173;48.354;9.248;2022-09-09T05:58:02;11.40;99.90
16136;DHT22;8173;48.354;9.248;2022-09-09T06:02:57;11.60;99.90
16136;DHT22;8173;48.354;9.248;2022-09-09T06:05:24;11.70;99.90
16136;DHT22;8173;48.354;9.248;2022-09-09T06:07:54;11.80;99.90
16136;DHT22;8173;48.354;9.248;2022-09-09T06:10:22;11.90;99.90
16136;DHT22;8173;48.354;9.248;2022-09-09T06:12:52;12.00;99.90
16136;DHT22;8173;48.354;9.248;2022-09-09T06:15:19;11.90;99.90
16136;DHT22;8173;48.354;9.248;2022-09-09T06:17:45;11.90;99.90
16136;DHT22;8173;48.354;9.248;2022-09-09T06:20:12;12.00;99.90
16136;DHT22;8173;48.354;9.248;2022-09-09T06:22:39;12.20;99.90
16136;DHT22;8173;48.354;9.248;2022-09-09T06:25:08;12.20;99.90
16136;DHT22;8173;48.354;9.248;2022-09-09T06:30:04;12.80;99.90
16136;DHT22;8173;48.354;9.248;2022-09-09T06:32:30;13.60;99.90
16136;DHT22;8173;48.354;9.248;2022-09-09T06:35:00;14.80;99.90
16136;DHT22;8173;48.354;9.248;2022-09-09T06:37:27;15.70;99.90
16136;DHT22;8173;48.354;9.248;2022-09-09T06:39:54;16.10;99.90
16136;DHT22;8173;48.354;9.248;2022-09-09T06:42:21;16.10;99.90
16136;DHT22;8173;48.354;9.248;2022-09-09T06:44:49;16.30;99.90
16136;DHT22;8173;48.354;9.248;2022-09-09T06:47:17;15.70;99.90
16136;DHT22;8173;48.354;9.248;2022-09-09T06:49:44;15.00;99.90
16136;DHT22;8173;48.354;9.248;2022-09-09T06:52:11;14.40;99.90
16136;DHT22;8173;48.354;9.248;2022-09-09T06:54:38;13.90;99.90
16136;DHT22;8173;48.354;9.248;2022-09-09T06:57:05;13.60;99.90
16136;DHT22;8173;48.354;9.248;2022-09-09T06:59:32;13.40;99.90
16136;DHT22;8173;48.354;9.248;2022-09-09T07:02:00;13.40;99.90
16136;DHT22;8173;48.354;9.248;2022-09-09T07:04:27;13.30;99.90
16136;DHT22;8173;48.354;9.248;2022-09-09T07:06:54;13.40;99.90
16136;DHT22;8173;48.354;9.248;2022-09-09T07:09:20;13.50;99.90
16136;DHT22;8173;48.354;9.248;2022-09-09T07:11:49;13.50;99.90
16136;DHT22;8173;48.354;9.248;2022-09-09T07:14:16;13.60;99.90
16136;DHT22;8173;48.354;9.248;2022-09-09T07:16:44;13.70;99.90
16136;DHT22;8173;48.354;9.248;2022-09-09T07:19:13;13.90;99.90
16136;DHT22;8173;48.354;9.248;2022-09-09T07:21:40;14.40;99.90
16136;DHT22;8173;48.354;9.248;2022-09-09T07:24:07;15.10;99.90
16136;DHT22;8173;48.354;9.248;2022-09-09T07:29:03;15.50;99.90
16136;DHT22;8173;48.354;9.248;2022-09-09T07:31:31;15.40;99.90
16136;DHT22;8173;48.354;9.248;2022-09-09T07:33:59;15.30;99.90
16136;DHT22;8173;48.354;9.248;2022-09-09T07:36:29;15.30;99.90
16136;DHT22;8173;48.354;9.248;2022-09-09T07:38:57;15.10;99.90
16136;DHT22;8173;48.354;9.248;2022-09-09T07:41:27;14.90;99.90
16136;DHT22;8173;48.354;9.248;2022-09-09T07:43:54;14.70;99.90
16136;DHT22;8173;48.354;9.248;2022-09-09T07:46:22;14.50;99.90
16136;DHT22;8173;48.354;9.248;2022-09-09T07:48:51;14.60;99.90
16136;DHT22;8173;48.354;9.248;2022-09-09T07:51:21;15.20;99.90
16136;DHT22;8173;48.354;9.248;2022-09-09T07:53:52;16.40;99.90
16136;DHT22;8173;48.354;9.248;2022-09-09T07:56:19;16.40;99.90
16136;DHT22;8173;48.354;9.248;2022-09-09T07:58:48;16.20;99.90
16136;DHT22;8173;48.354;9.248;2022-09-09T08:01:17;16.10;99.90
16136;DHT22;8173;48.354;9.248;2022-09-09T08:03:45;16.00;99.90
16136;DHT22;8173;48.354;9.248;2022-09-09T08:06:12;16.00;99.90
16136;DHT22;8173;48.354;9.248;2022-09-09T08:08:40;16.00;99.90
16136;DHT22;8173;48.354;9.248;2022-09-09T08:11:12;16.00;99.90
16136;DHT22;8173;48.354;9.248;2022-09-09T08:13:40;15.80;99.90
16136;DHT22;8173;48.354;9.248;2022-09-09T08:16:09;15.60;99.90
16136;DHT22;8173;48.354;9.248;2022-09-09T08:18:37;15.30;99.90
16136;DHT22;8173;48.354;9.248;2022-09-09T08:21:06;15.30;99.90
16136;DHT22;8173;48.354;9.248;2022-09-09T08:23:33;15.60;99.90
16136;DHT22;8173;48.354;9.248;2022-09-09T08:26:05;15.70;99.90
16136;DHT22;8173;48.354;9.248;2022-09-09T08:28:33;15.40;99.90
16136;DHT22;8173;48.354;9.248;2022-09-09T08:31:11;15.30;99.90
16136;DHT22;8173;48.354;9.248;2022-09-09T08:33:39;15.30;99.90
16136;DHT22;8173;48.354;9.248;2022-09-09T08:36:09;15.10;99.90
16136;DHT22;8173;48.354;9.248;2022-09-09T08:38:36;15.10;99.90
16136;DHT22;8173;48.354;9.248;2022-09-09T08:41:22;15.00;99.90
16136;DHT22;8173;48.354;9.248;2022-09-09T08:44:02;15.00;99.90
16136;DHT22;8173;48.354;9.248;2022-09-09T08:46:41;15.00;99.90
16136;DHT22;8173;48.354;9.248;2022-09-09T08:49:19;15.00;99.90
16136;DHT22;8173;48.354;9.248;2022-09-09T08:51:48;15.30;99.90
16136;DHT22;8173;48.354;9.248;2022-09-09T08:54:16;15.50;99.90
16136;DHT22;8173;48.354;9.248;2022-09-09T08:56:43;15.70;99.90
16136;DHT22;8173;48.354;9.248;2022-09-09T08:59:14;15.80;99.90
16136;DHT22;8173;48.354;9.248;2022-09-09T09:01:57;16.00;99.90
16136;DHT22;8173;48.354;9.248;2022-09-09T09:07:42;16.20;99.90
16136;DHT22;8173;48.354;9.248;2022-09-09T09:10:21;17.40;99.90
16136;DHT22;8173;48.354;9.248;2022-09-09T09:12:52;16.80;99.90
16136;DHT22;8173;48.354;9.248;2022-09-09T09:15:23;16.80;99.90
16136;DHT22;8173;48.354;9.248;2022-09-09T09:17:51;17.00;99.90
16136;DHT22;8173;48.354;9.248;2022-09-09T09:20:21;17.10;99.90
16136;DHT22;8173;48.354;9.248;2022-09-09T09:22:51;17.30;99.90
16136;DHT22;8173;48.354;9.248;2022-09-09T09:25:20;17.90;99.90
16136;DHT22;8173;48.354;9.248;2022-09-09T09:28:02;18.20;99.90
16136;DHT22;8173;48.354;9.248;2022-09-09T09:30:36;19.00;99.90
16136;DHT22;8173;48.354;9.248;2022-09-09T09:33:11;19.60;99.90
16136;DHT22;8173;48.354;9.248;2022-09-09T09:35:41;19.80;99.90
16136;DHT22;8173;48.354;9.248;2022-09-09T09:38:16;19.80;99.90
16136;DHT22;8173;48.354;9.248;2022-09-09T09:40:49;20.00;99.90
16136;DHT22;8173;48.354;9.248;2022-09-09T09:43:21;20.40;99.90
16136;DHT22;8173;48.354;9.248;2022-09-09T09:45:51;19.60;99.90
16136;DHT22;8173;48.354;9.248;2022-09-09T09:48:18;19.00;99.90
16136;DHT22;8173;48.354;9.248;2022-09-09T09:50:49;19.30;99.90
16136;DHT22;8173;48.354;9.248;2022-09-09T09:53:21;19.30;99.90
16136;DHT22;8173;48.354;9.248;2022-09-09T09:55:55;19.90;99.90
16136;DHT22;8173;48.354;9.248;2022-09-09T09:58:23;20.50;99.90
16136;DHT22;8173;48.354;9.248;2022-09-09T10:00:53;20.30;99.90
16136;DHT22;8173;48.354;9.248;2022-09-09T10:03:24;20.20;99.90
16136;DHT22;8173;48.354;9.248;2022-09-09T10:05:51;19.80;99.90
16136;DHT22;8173;48.354;9.248;2022-09-09T10:08:18;19.40;99.90
16136;DHT22;8173;48.354;9.248;2022-09-09T10:11:06;19.70;99.90
16136;DHT22;8173;48.354;9.248;2022-09-09T10:13:40;20.00;99.90
16136;DHT22;8173;48.354;9.248;2022-09-09T10:16:22;19.80;99.90
16136;DHT22;8173;48.354;9.248;2022-09-09T10:18:58;19.60;99.90
16136;DHT22;8173;48.354;9.248;2022-09-09T10:21:40;18.50;99.90
16136;DHT22;8173;48.354;9.248;2022-09-09T10:24:33;18.20;99.90
16136;DHT22;8173;48.354;9.248;2022-09-09T10:27:09;18.20;99.90
16136;DHT22;8173;48.354;9.248;2022-09-09T10:29:57;18.00;99.90
16136;DHT22;8173;48.354;9.248;2022-09-09T10:32:45;17.60;99.90
16136;DHT22;8173;48.354;9.248;2022-09-09T10:35:19;17.10;99.90
16136;DHT22;8173;48.354;9.248;2022-09-09T10:38:15;17.00;99.90
16136;DHT22;8173;48.354;9.248;2022-09-09T10:40:58;17.00;99.90
16136;DHT22;8173;48.354;9.248;2022-09-09T10:43:38;16.80;99.90
16136;DHT22;8173;48.354;9.248;2022-09-09T10:46:14;16.70;99.90
16136;DHT22;8173;48.354;9.248;2022-09-09T10:48:56;17.20;99.90
16136;DHT22;8173;48.354;9.248;2022-09-09T10:51:33;17.20;99.90
16136;DHT22;8173;48.354;9.248;2022-09-09T10:54:17;17.60;99.90
16136;DHT22;8173;48.354;9.248;2022-09-09T10:56:51;18.40;99.90
16136;DHT22;8173;48.354;9.248;2022-09-09T10:59:25;19.20;99.90
16136;DHT22;8173;48.354;9.248;2022-09-09T11:01:57;19.90;99.90
16136;DHT22;8173;48.354;9.248;2022-09-09T11:04:31;20.00;99.90
16136;DHT22;8173;48.354;9.248;2022-09-09T11:07:05;20.00;99.90
16136;DHT22;8173;48.354;9.248;2022-09-09T11:09:37;20.10;99.90
16136;DHT22;8173;48.354;9.248;2022-09-09T11:12:05;20.60;99.90
16136;DHT22;8173;48.354;9.248;2022-09-09T11:14:39;20.50;99.90
16136;DHT22;8173;48.354;9.248;2022-09-09T11:17:10;19.60;99.90
16136;DHT22;8173;48.354;9.248;2022-09-09T11:19:42;18.30;99.90
16136;DHT22;8173;48.354;9.248;2022-09-09T11:22:17;18.40;99.90
16136;DHT22;8173;48.354;9.248;2022-09-09T11:24:47;18.20;99.90
16136;DHT22;8173;48.354;9.248;2022-09-09T11:27:20;17.80;99.90
16136;DHT22;8173;48.354;9.248;2022-09-09T11:33:17;17.20;99.90
16136;DHT22;8173;48.354;9.248;2022-09-09T11:36:03;17.40;99.90
16136;DHT22;8173;48.354;9.248;2022-09-09T11:38:38;17.80;99.90
16136;DHT22;8173;48.354;9.248;2022-09-09T11:41:08;17.80;99.90
16136;DHT22;8173;48.354;9.248;2022-09-09T11:43:39;17.80;99.90
16136;DHT22;8173;48.354;9.248;2022-09-09T11:46:08;18.40;99.90
16136;DHT22;8173;48.354;9.248;2022-09-09T11:48:36;18.90;99.90
16136;DHT22;8173;48.354;9.248;2022-09-09T11:51:07;19.00;99.90
16136;DHT22;8173;48.354;9.248;2022-09-09T11:53:34;19.10;99.90
16136;DHT22;8173;48.354;9.248;2022-09-09T11:56:06;19.10;99.90
16136;DHT22;8173;48.354;9.248;2022-09-09T11:58:38;18.40;99.90
16136;DHT22;8173;48.354;9.248;2022-09-09T12:04:26;18.60;99.90
16136;DHT22;8173;48.354;9.248;2022-09-09T12:06:58;18.80;99.90
16136;DHT22;8173;48.354;9.248;2022-09-09T12:09:39;18.90;99.90
16136;DHT22;8173;48.354;9.248;2022-09-09T12:12:22;18.80;99.90
16136;DHT22;8173;48.354;9.248;2022-09-09T12:14:59;18.30;99.90
16136;DHT22;8173;48.354;9.248;2022-09-09T12:17:27;18.80;99.90
16136;DHT22;8173;48.354;9.248;2022-09-09T12:20:08;19.80;99.90
16136;DHT22;8173;48.354;9.248;2022-09-09T12:22:46;20.50;99.90
16136;DHT22;8173;48.354;9.248;2022-09-09T12:25:21;21.30;99.90
16136;DHT22;8173;48.354;9.248;2022-09-09T12:28:02;21.10;99.90
16136;DHT22;8173;48.354;9.248;2022-09-09T12:30:34;21.80;99.90
16136;DHT22;8173;48.354;9.248;2022-09-09T12:33:10;22.10;99.90
16136;DHT22;8173;48.354;9.248;2022-09-09T12:35:39;22.20;99.90
16136;DHT22;8173;48.354;9.248;2022-09-09T12:38:12;22.20;99.90
16136;DHT22;8173;48.354;9.248;2022-09-09T12:40:40;21.20;99.90
16136;DHT22;8173;48.354;9.248;2022-09-09T12:43:17;20.40;99.90
16136;DHT22;8173;48.354;9.248;2022-09-09T12:45:45;20.00;99.90
16136;DHT22;8173;48.354;9.248;2022-09-09T12:48:12;20.20;99.90
16136;DHT22;8173;48.354;9.248;2022-09-09T12:50:45;20.30;99.90
16136;DHT22;8173;48.354;9.248;2022-09-09T12:53:19;20.40;99.90
16136;DHT22;8173;48.354;9.248;2022-09-09T12:55:50;20.80;99.90
16136;DHT22;8173;48.354;9.248;2022-09-09T12:58:19;20.80;99.90
16136;DHT22;8173;48.354;9.248;2022-09-09T13:00:50;21.10;99.90
16136;DHT22;8173;48.354;9.248;2022-09-09T13:03:19;20.80;99.90
16136;DHT22;8173;48.354;9.248;2022-09-09T13:05:47;20.90;99.90
16136;DHT22;8173;48.354;9.248;2022-09-09T13:08:16;21.10;99.90
16136;DHT22;8173;48.354;9.248;2022-09-09T13:10:48;21.60;99.90
16136;DHT22;8173;48.354;9.248;2022-09-09T13:13:22;21.30;99.90
16136;DHT22;8173;48.354;9.248;2022-09-09T13:15:51;21.40;99.90
16136;DHT22;8173;48.354;9.248;2022-09-09T13:18:21;21.30;99.90
16136;DHT22;8173;48.354;9.248;2022-09-09T13:20:49;22.00;99.90
16136;DHT22;8173;48.354;9.248;2022-09-09T13:23:19;22.10;99.90
16136;DHT22;8173;48.354;9.248;2022-09-09T13:25:54;21.70;99.90
16136;DHT22;8173;48.354;9.248;2022-09-09T13:28:23;21.70;99.90
16136;DHT22;8173;48.354;9.248;2022-09-09T13:30:57;21.40;99.90
16136;DHT22;8173;48.354;9.248;2022-09-09T13:33:34;20.40;99.90
16136;DHT22;8173;48.354;9.248;2022-09-09T13:36:04;19.60;99.90
16136;DHT22;8173;48.354;9.248;2022-09-09T13:38:35;19.20;99.90
16136;DHT22;8173;48.354;9.248;2022-09-09T13:41:04;18.80;99.90
16136;DHT22;8173;48.354;9.248;2022-09-09T13:43:35;18.40;99.90
16136;DHT22;8173;48.354;9.248;2022-09-09T13:46:04;18.60;99.90
16136;DHT22;8173;48.354;9.248;2022-09-09T13:48:32;19.30;99.90
16136;DHT22;8173;48.354;9.248;2022-09-09T13:51:01;19.90;99.90
16136;DHT22;8173;48.354;9.248;2022-09-09T13:53:30;20.50;99.90
16136;DHT22;8173;48.354;9.248;2022-09-09T13:55:58;20.70;99.90
16136;DHT22;8173;48.354;9.248;2022-09-09T13:58:26;20.70;99.90
16136;DHT22;8173;48.354;9.248;2022-09-09T14:00:53;20.60;99.90
16136;DHT22;8173;48.354;9.248;2022-09-09T14:03:20;20.40;99.90
16136;DHT22;8173;48.354;9.248;2022-09-09T14:05:47;20.10;99.90
16136;DHT22;8173;48.354;9.248;2022-09-09T14:08:24;19.80;99.90
16136;DHT22;8173;48.354;9.248;2022-09-09T14:10:52;20.30;99.90
16136;DHT22;8173;48.354;9.248;2022-09-09T14:13:22;20.90;99.90
16136;DHT22;8173;48.354;9.248;2022-09-09T14:15:50;20.60;99.90
16136;DHT22;8173;48.354;9.248;2022-09-09T14:18:16;20.50;99.90
16136;DHT22;8173;48.354;9.248;2022-09-09T14:20:44;20.60;99.90
16136;DHT22;8173;48.354;9.248;2022-09-09T14:23:11;20.20;99.90
16136;DHT22;8173;48.354;9.248;2022-09-09T14:25:42;19.90;99.90
16136;DHT22;8173;48.354;9.248;2022-09-09T14:28:10;19.20;99.90
16136;DHT22;8173;48.354;9.248;2022-09-09T14:30:40;18.70;99.90
16136;DHT22;8173;48.354;9.248;2022-09-09T14:33:08;18.50;99.90
16136;DHT22;8173;48.354;9.248;2022-09-09T14:35:36;18.80;99.90
16136;DHT22;8173;48.354;9.248;2022-09-09T14:38:04;18.90;99.90
16136;DHT22;8173;48.354;9.248;2022-09-09T14:40:31;19.00;99.90
16136;DHT22;8173;48.354;9.248;2022-09-09T14:42:58;18.90;99.90
16136;DHT22;8173;48.354;9.248;2022-09-09T14:45:24;18.70;99.90
16136;DHT22;8173;48.354;9.248;2022-09-09T14:47:53;18.40;99.90
16136;DHT22;8173;48.354;9.248;2022-09-09T14:50:20;18.30;99.90
16136;DHT22;8173;48.354;9.248;2022-09-09T14:52:48;18.30;99.90
16136;DHT22;8173;48.354;9.248;2022-09-09T14:55:16;19.00;99.90
16136;DHT22;8173;48.354;9.248;2022-09-09T14:57:42;19.70;99.90
16136;DHT22;8173;48.354;9.248;2022-09-09T15:00:10;20.00;99.90
16136;DHT22;8173;48.354;9.248;2022-09-09T15:02:37;20.20;99.90
16136;DHT22;8173;48.354;9.248;2022-09-09T15:05:06;20.30;99.90
16136;DHT22;8173;48.354;9.248;2022-09-09T15:07:33;20.00;99.90
16136;DHT22;8173;48.354;9.248;2022-09-09T15:10:02;19.30;99.90
16136;DHT22;8173;48.354;9.248;2022-09-09T15:12:29;18.80;99.90
16136;DHT22;8173;48.354;9.248;2022-09-09T15:14:56;18.30;99.90
16136;DHT22;8173;48.354;9.248;2022-09-09T15:17:22;18.00;99.90
16136;DHT22;8173;48.354;9.248;2022-09-09T15:19:52;17.80;99.90
16136;DHT22;8173;48.354;9.248;2022-09-09T15:22:21;17.80;99.90
16136;DHT22;8173;48.354;9.248;2022-09-09T15:24:49;17.80;99.90
16136;DHT22;8173;48.354;9.248;2022-09-09T15:27:16;17.90;99.90
16136;DHT22;8173;48.354;9.248;2022-09-09T15:29:43;17.90;99.90
16136;DHT22;8173;48.354;9.248;2022-09-09T15:32:10;17.90;99.90
16136;DHT22;8173;48.354;9.248;2022-09-09T15:34:37;17.70;99.90
16136;DHT22;8173;48.354;9.248;2022-09-09T15:37:04;17.50;99.90
16136;DHT22;8173;48.354;9.248;2022-09-09T15:39:33;17.30;99.90
16136;DHT22;8173;48.354;9.248;2022-09-09T15:41:59;17.00;99.90
16136;DHT22;8173;48.354;9.248;2022-09-09T15:44:27;16.90;99.90
16136;DHT22;8173;48.354;9.248;2022-09-09T15:46:53;16.80;99.90
16136;DHT22;8173;48.354;9.248;2022-09-09T15:49:22;16.80;99.90
16136;DHT22;8173;48.354;9.248;2022-09-09T15:51:51;16.80;99.90
16136;DHT22;8173;48.354;9.248;2022-09-09T15:54:20;16.80;99.90
16136;DHT22;8173;48.354;9.248;2022-09-09T15:56:51;16.80;99.90
16136;DHT22;8173;48.354;9.248;2022-09-09T15:59:20;16.80;99.90
16136;DHT22;8173;48.354;9.248;2022-09-09T16:01:47;16.80;99.90
16136;DHT22;8173;48.354;9.248;2022-09-09T16:04:15;16.90;99.90
16136;DHT22;8173;48.354;9.248;2022-09-09T16:06:48;16.90;99.90
16136;DHT22;8173;48.354;9.248;2022-09-09T16:09:15;16.60;99.90
16136;DHT22;8173;48.354;9.248;2022-09-09T16:11:42;16.60;99.90
16136;DHT22;8173;48.354;9.248;2022-09-09T16:14:10;16.70;99.90
16136;DHT22;8173;48.354;9.248;2022-09-09T16:16:37;16.60;99.90
16136;DHT22;8173;48.354;9.248;2022-09-09T16:19:06;16.50;99.90
16136;DHT22;8173;48.354;9.248;2022-09-09T16:21:37;15.80;99.90
16136;DHT22;8173;48.354;9.248;2022-09-09T16:24:06;16.60;99.90
16136;DHT22;8173;48.354;9.248;2022-09-09T16:26:35;16.80;99.90
16136;DHT22;8173;48.354;9.248;2022-09-09T16:29:02;16.90;99.90
16136;DHT22;8173;48.354;9.248;2022-09-09T16:31:31;16.90;99.90
16136;DHT22;8173;48.354;9.248;2022-09-09T16:33:58;17.00;99.90
16136;DHT22;8173;48.354;9.248;2022-09-09T16:36:27;17.00;99.90
16136;DHT22;8173;48.354;9.248;2022-09-09T16:38:57;17.40;99.90